Bowmanville, Canada
Current Conditions -  °F | °C
As of 6:00 AM on Saturday 25 Oct 2014 (Local Time) from CYOO Reporting Station
Broken Clouds Broken Clouds  
Wind Chill: 45°   Ceiling: 24000
Heat Index: 45°   Visibility: 9mi
Dew Point: 43°   Wind: 0mph
Humidity: 93%   Direction: NA
Pressure: 29.81"   Gusts: NA
Location:  43.91°N, 78.69°W
Report Text: CYOO 251000Z AUTO 00000KT 9SM SCT042 BKN240 07/06 A2981 RMK SLP097
Loading
Personal Weather Stations






























Interactive Weather Map
Tropical Storm Tracking
New forecast layout! Learn more

10-Day Weather Forecast

Advertisements
Track Severe Weather on mobile